createdAt,value
2022-12-11T00:01:14.621Z,93.14
2022-12-11T00:04:17.879Z,93.54
2022-12-11T00:07:20.838Z,93.48
2022-12-11T00:10:23.751Z,93.40
2022-12-11T00:13:26.515Z,93.41
2022-12-11T00:16:29.461Z,93.49
2022-12-11T00:19:32.374Z,93.43
2022-12-11T00:22:35.751Z,93.46
2022-12-11T00:25:44.370Z,93.44
2022-12-11T00:28:48.286Z,93.50
2022-12-11T00:31:51.061Z,93.68
2022-12-11T00:34:53.819Z,93.71
2022-12-11T00:37:56.609Z,93.96
2022-12-11T00:41:00.028Z,93.75
2022-12-11T00:44:03.537Z,93.42
2022-12-11T00:47:06.309Z,93.73
2022-12-11T00:50:09.316Z,93.83
2022-12-11T00:53:12.193Z,93.60
2022-12-11T00:56:24.704Z,93.60
2022-12-11T00:59:28.827Z,93.87
2022-12-11T01:02:31.586Z,93.52
2022-12-11T01:05:34.529Z,93.38
2022-12-11T01:08:38.847Z,93.29
2022-12-11T01:11:42.949Z,93.45
2022-12-11T01:14:46.259Z,93.24
2022-12-11T01:17:50.524Z,93.25
2022-12-11T01:20:53.420Z,93.26
2022-12-11T01:23:56.251Z,93.44
2022-12-11T01:26:59.019Z,93.90
2022-12-11T01:30:01.791Z,93.70
2022-12-11T01:33:04.649Z,93.44
2022-12-11T01:36:21.471Z,92.79
2022-12-11T01:39:24.383Z,92.64
2022-12-11T01:42:29.615Z,92.59
2022-12-11T01:45:52.966Z,92.28
2022-12-11T01:48:56.176Z,92.53
2022-12-11T01:52:03.327Z,92.60
2022-12-11T01:55:07.114Z,92.52
2022-12-11T01:58:11.792Z,92.98
2022-12-11T02:01:22.702Z,92.67
2022-12-11T02:04:26.176Z,92.63
2022-12-11T02:07:33.914Z,92.79
2022-12-11T02:10:56.574Z,92.55
2022-12-11T02:14:20.218Z,92.97
2022-12-11T02:17:32.782Z,93.12
2022-12-11T02:20:35.487Z,93.17
2022-12-11T02:23:40.879Z,93.02
2022-12-11T02:27:11.144Z,92.74
2022-12-11T02:30:16.283Z,93.17
2022-12-11T02:33:23.543Z,93.11
2022-12-11T02:36:31.320Z,93.12
2022-12-11T02:39:38.909Z,92.39
2022-12-11T02:42:44.420Z,91.97
2022-12-11T02:45:49.749Z,92.05
2022-12-11T02:48:53.894Z,92.38
2022-12-11T02:51:59.252Z,92.31
2022-12-11T02:55:04.342Z,91.89
2022-12-11T02:58:18.358Z,92.20
2022-12-11T03:01:21.593Z,92.39
2022-12-11T03:04:25.103Z,92.41
2022-12-11T03:07:34.361Z,92.41
2022-12-11T03:10:37.159Z,92.32
2022-12-11T03:13:42.663Z,92.43
2022-12-11T03:17:00.242Z,92.45
2022-12-11T03:20:21.391Z,92.53
2022-12-11T03:23:28.570Z,92.59
2022-12-11T03:26:35.907Z,92.77
2022-12-11T03:29:45.862Z,92.55
2022-12-11T03:33:24.153Z,92.42
2022-12-11T03:36:37.852Z,92.92
2022-12-11T03:39:49.002Z,92.29
2022-12-11T03:42:54.124Z,92.06
2022-12-11T03:45:58.406Z,92.13
2022-12-11T03:49:06.288Z,92.18
2022-12-11T03:52:12.523Z,91.82
2022-12-11T03:55:17.890Z,91.90
2022-12-11T03:58:20.688Z,92.14
2022-12-11T04:01:23.564Z,92.00
2022-12-11T04:04:26.423Z,92.17
2022-12-11T04:07:29.254Z,92.00
2022-12-11T04:10:32.041Z,92.00
2022-12-11T04:13:34.908Z,92.30
2022-12-11T04:16:37.834Z,91.70
2022-12-11T04:19:59.202Z,91.22
2022-12-11T04:23:33.252Z,91.24
2022-12-11T04:26:35.996Z,91.47
2022-12-11T04:29:38.758Z,91.88
2022-12-11T04:32:42.026Z,92.05
2022-12-11T04:35:44.762Z,92.29
2022-12-11T04:38:47.555Z,92.63
2022-12-11T04:41:50.325Z,92.63
2022-12-11T04:44:53.081Z,92.58
2022-12-11T04:47:55.914Z,92.47
2022-12-11T04:50:59.209Z,92.09
2022-12-11T04:54:01.983Z,92.13
2022-12-11T04:57:04.754Z,92.19
2022-12-11T05:00:10.114Z,92.29
2022-12-11T05:03:13.145Z,92.39
2022-12-11T05:06:16.509Z,92.53
2022-12-11T05:09:19.325Z,92.44
2022-12-11T05:12:22.221Z,91.92
2022-12-11T05:15:25.011Z,92.07
2022-12-11T05:18:27.832Z,91.96
2022-12-11T05:21:35.017Z,91.87
2022-12-11T05:24:38.170Z,92.00
2022-12-11T05:27:40.920Z,92.07
2022-12-11T05:30:43.930Z,91.88
2022-12-11T05:33:49.023Z,91.84
2022-12-11T05:36:51.904Z,91.79
2022-12-11T05:39:54.672Z,91.72
2022-12-11T05:42:57.431Z,92.10
2022-12-11T05:46:33.131Z,92.22
2022-12-11T05:49:35.959Z,92.12
2022-12-11T05:52:38.790Z,92.07
2022-12-11T05:55:41.662Z,92.00
2022-12-11T05:58:45.545Z,91.93
2022-12-11T06:01:48.481Z,92.14
2022-12-11T06:04:51.359Z,92.05
2022-12-11T06:07:54.175Z,92.23
2022-12-11T06:10:56.980Z,92.35
2022-12-11T06:14:01.913Z,92.91
2022-12-11T06:17:04.616Z,92.52
2022-12-11T06:20:07.716Z,92.82
2022-12-11T06:23:10.672Z,92.78
2022-12-11T06:26:15.632Z,93.00
2022-12-11T06:29:18.400Z,93.14
2022-12-11T06:32:21.848Z,93.03
2022-12-11T06:35:24.941Z,92.88
2022-12-11T06:38:27.675Z,92.74
2022-12-11T06:41:30.399Z,92.71
2022-12-11T06:44:33.167Z,92.60
2022-12-11T06:47:36.011Z,91.67
2022-12-11T06:50:39.020Z,91.36
2022-12-11T06:53:42.665Z,91.45
2022-12-11T06:56:45.384Z,91.16
2022-12-11T06:59:48.740Z,91.49
2022-12-11T07:02:51.631Z,91.42
2022-12-11T07:05:54.394Z,91.62
2022-12-11T07:08:57.239Z,91.44
2022-12-11T07:12:00.081Z,91.23
2022-12-11T07:15:05.099Z,91.14
2022-12-11T07:18:07.889Z,91.24
2022-12-11T07:21:12.868Z,90.82
2022-12-11T07:24:15.808Z,90.55
2022-12-11T07:27:18.569Z,89.86
2022-12-11T07:30:21.405Z,90.15
2022-12-11T07:33:24.245Z,90.23
2022-12-11T07:36:28.375Z,90.47
2022-12-11T07:39:31.136Z,90.10
2022-12-11T07:42:33.884Z,89.91
2022-12-11T07:45:36.933Z,89.61
2022-12-11T07:48:41.242Z,89.70
2022-12-11T07:51:44.024Z,89.70
2022-12-11T07:54:46.838Z,88.84
2022-12-11T07:57:49.634Z,88.78
2022-12-11T08:00:53.702Z,88.77
2022-12-11T08:03:57.088Z,88.41
2022-12-11T08:06:59.950Z,87.94
2022-12-11T08:10:04.209Z,86.90
2022-12-11T08:13:07.019Z,86.32
2022-12-11T08:16:13.266Z,86.49
2022-12-11T08:19:16.536Z,86.62
2022-12-11T08:22:19.322Z,86.74
2022-12-11T08:25:22.174Z,87.38
2022-12-11T08:28:27.018Z,87.01
2022-12-11T08:31:30.713Z,86.71
2022-12-11T08:34:33.612Z,86.52
2022-12-11T08:37:36.374Z,86.22
2022-12-11T08:40:39.164Z,85.94
2022-12-11T08:43:42.089Z,84.65
2022-12-11T08:46:45.055Z,84.04
2022-12-11T08:49:47.944Z,83.39
2022-12-11T08:52:51.312Z,83.20
2022-12-11T08:55:54.174Z,82.49
2022-12-11T08:59:00.915Z,82.23
2022-12-11T09:02:03.884Z,81.90
2022-12-11T09:05:09.726Z,82.35
2022-12-11T09:08:13.142Z,81.79
2022-12-11T09:11:19.490Z,82.65
2022-12-11T09:14:22.506Z,82.69
2022-12-11T09:17:25.269Z,82.65
2022-12-11T09:20:28.101Z,82.42
2022-12-11T09:23:31.002Z,82.93
2022-12-11T09:26:34.164Z,83.54
2022-12-11T09:29:36.951Z,84.19
2022-12-11T09:32:40.301Z,84.07
2022-12-11T09:35:43.438Z,84.86
2022-12-11T09:38:46.999Z,84.85
2022-12-11T09:42:34.001Z,83.11
2022-12-11T09:45:36.843Z,82.99
2022-12-11T09:48:43.622Z,84.00
2022-12-11T09:52:00.155Z,84.78
2022-12-11T09:55:13.437Z,85.07
2022-12-11T09:58:54.529Z,84.78
2022-12-11T10:02:15.053Z,84.07
2022-12-11T10:05:26.888Z,83.61
2022-12-11T10:08:48.213Z,83.68
2022-12-11T10:12:42.499Z,83.54
2022-12-11T10:15:48.097Z,82.98
2022-12-11T10:18:52.396Z,82.64
2022-12-11T10:21:56.450Z,82.64
2022-12-11T10:25:12.207Z,82.74
2022-12-11T10:28:18.127Z,82.00
2022-12-11T10:31:35.926Z,82.55
2022-12-11T10:34:44.396Z,82.86
2022-12-11T10:37:47.218Z,82.12
2022-12-11T10:40:59.583Z,82.07
2022-12-11T10:44:13.887Z,80.76
2022-12-11T10:47:18.886Z,80.94
2022-12-11T10:50:26.143Z,81.33
2022-12-11T10:53:30.601Z,81.20
2022-12-11T10:56:36.040Z,81.04
2022-12-11T10:59:48.130Z,81.12
2022-12-11T11:02:51.217Z,80.62
2022-12-11T11:06:23.617Z,80.31
2022-12-11T11:09:34.436Z,79.41
2022-12-11T11:12:44.299Z,79.54
2022-12-11T11:15:47.462Z,80.36
2022-12-11T11:18:56.033Z,80.05
2022-12-11T11:22:14.409Z,80.21
2022-12-11T11:25:19.667Z,80.80
2022-12-11T11:28:27.317Z,80.47
2022-12-11T11:31:36.031Z,80.38
2022-12-11T11:34:38.888Z,81.01
2022-12-11T11:37:46.809Z,80.93
2022-12-11T11:41:16.191Z,81.74
2022-12-11T11:44:27.526Z,81.47
2022-12-11T11:47:41.708Z,80.91
2022-12-11T11:50:50.485Z,81.45
2022-12-11T11:53:58.593Z,81.30
2022-12-11T11:57:27.321Z,80.85
2022-12-11T12:00:33.813Z,80.83
2022-12-11T12:03:37.040Z,81.29
2022-12-11T12:06:50.534Z,81.51
2022-12-11T12:10:09.702Z,80.45
2022-12-11T12:13:49.231Z,79.92
2022-12-11T12:16:59.937Z,80.37
2022-12-11T12:20:36.821Z,80.24
2022-12-11T12:23:51.734Z,79.69
2022-12-11T12:27:02.563Z,80.01
2022-12-11T12:30:14.044Z,80.64
2022-12-11T12:33:18.924Z,81.22
2022-12-11T12:36:38.467Z,80.40
2022-12-11T12:40:06.298Z,80.74
2022-12-11T12:43:29.302Z,81.26
2022-12-11T12:46:41.301Z,81.38
2022-12-11T12:49:47.120Z,81.06
2022-12-11T12:52:51.800Z,81.20
2022-12-11T12:55:55.960Z,81.83
2022-12-11T12:58:58.788Z,82.17
2022-12-11T13:02:04.408Z,81.80
2022-12-11T13:05:21.326Z,81.96
2022-12-11T13:08:26.959Z,82.53
2022-12-11T13:11:34.929Z,82.84
2022-12-11T13:14:37.718Z,82.40
2022-12-11T13:17:40.603Z,82.83
2022-12-11T13:20:51.218Z,83.52
2022-12-11T13:23:55.188Z,83.69
2022-12-11T13:27:11.800Z,83.83
2022-12-11T13:30:14.529Z,83.99
2022-12-11T13:33:19.477Z,83.95
2022-12-11T13:36:24.769Z,84.12
2022-12-11T13:39:32.056Z,84.68
2022-12-11T13:42:41.804Z,85.22
2022-12-11T13:45:49.932Z,85.99
2022-12-11T13:48:57.332Z,86.24
2022-12-11T13:52:01.220Z,86.44
2022-12-11T13:55:17.387Z,86.45
2022-12-11T13:58:22.922Z,86.55
2022-12-11T14:01:30.850Z,86.87
2022-12-11T14:04:34.712Z,87.42
2022-12-11T14:07:43.424Z,87.53
2022-12-11T14:10:52.696Z,87.47
2022-12-11T14:14:01.924Z,87.82
2022-12-11T14:17:05.013Z,87.77
2022-12-11T14:20:18.264Z,88.25
2022-12-11T14:23:24.212Z,88.26
2022-12-11T14:26:32.847Z,88.23
2022-12-11T14:29:35.608Z,88.36
2022-12-11T14:32:45.151Z,88.47
2022-12-11T14:35:50.727Z,88.67
2022-12-11T14:39:00.235Z,88.81
2022-12-11T14:42:23.353Z,89.04
2022-12-11T14:45:42.695Z,88.96
2022-12-11T14:49:00.780Z,88.90
2022-12-11T14:52:05.023Z,89.20
2022-12-11T14:55:13.590Z,89.44
2022-12-11T14:58:26.689Z,89.27
2022-12-11T15:01:36.724Z,89.47
2022-12-11T15:04:39.697Z,89.80
2022-12-11T15:07:53.901Z,89.92
2022-12-11T15:11:09.071Z,90.03
2022-12-11T15:14:13.852Z,89.99
2022-12-11T15:17:17.735Z,90.00
2022-12-11T15:20:24.696Z,90.04
2022-12-11T15:23:28.510Z,90.04
2022-12-11T15:26:44.246Z,89.88
2022-12-11T15:29:47.069Z,90.06
2022-12-11T15:32:49.973Z,90.16
2022-12-11T15:36:07.158Z,90.21
2022-12-11T15:39:09.946Z,89.94
2022-12-11T15:42:18.159Z,89.77
2022-12-11T15:45:26.262Z,89.67
2022-12-11T15:48:29.116Z,89.45
2022-12-11T15:51:31.957Z,89.20
2022-12-11T15:54:34.762Z,88.46
2022-12-11T15:57:39.424Z,88.49
2022-12-11T16:00:42.320Z,88.72
2022-12-11T16:03:45.907Z,89.16
2022-12-11T16:06:48.735Z,89.30
2022-12-11T16:09:52.149Z,89.41
2022-12-11T16:12:59.628Z,89.49
2022-12-11T16:16:02.638Z,89.55
2022-12-11T16:19:05.479Z,89.72
2022-12-11T16:22:09.243Z,89.62
2022-12-11T16:25:12.302Z,89.77
2022-12-11T16:28:17.624Z,89.85
2022-12-11T16:31:20.565Z,89.83
2022-12-11T16:34:27.685Z,89.91
2022-12-11T16:37:30.506Z,90.04
2022-12-11T16:40:33.340Z,90.04
2022-12-11T16:43:36.124Z,90.11
2022-12-11T16:46:39.030Z,90.11
2022-12-11T16:49:43.297Z,90.15
2022-12-11T16:52:46.147Z,90.26
2022-12-11T16:55:48.963Z,90.25
2022-12-11T16:58:51.851Z,90.24
2022-12-11T17:01:54.725Z,89.78
2022-12-11T17:04:57.595Z,89.52
2022-12-11T17:08:00.419Z,89.42
2022-12-11T17:11:08.040Z,89.76
2022-12-11T17:14:12.727Z,89.94
2022-12-11T17:17:15.619Z,89.91
2022-12-11T17:20:18.540Z,90.08
2022-12-11T17:23:21.353Z,89.90
2022-12-11T17:26:25.416Z,89.77
2022-12-11T17:29:28.302Z,89.59
2022-12-11T17:32:31.045Z,89.96
2022-12-11T17:35:34.412Z,89.96
2022-12-11T17:38:37.181Z,90.23
2022-12-11T17:41:39.929Z,90.25
2022-12-11T17:44:45.608Z,90.27
2022-12-11T17:47:48.486Z,90.11
2022-12-11T17:50:52.810Z,89.68
2022-12-11T17:53:56.283Z,89.87
2022-12-11T17:56:59.075Z,89.62
2022-12-11T18:00:01.975Z,88.91
2022-12-11T18:03:04.942Z,89.07
2022-12-11T18:06:10.712Z,89.03
2022-12-11T18:09:13.594Z,88.47
2022-12-11T18:12:16.561Z,88.33
2022-12-11T18:15:19.895Z,88.45
2022-12-11T18:18:22.716Z,88.22
2022-12-11T18:21:32.354Z,88.26
2022-12-11T18:24:35.188Z,88.74
2022-12-11T18:27:38.605Z,88.81
2022-12-11T18:30:41.472Z,88.81
2022-12-11T18:33:45.414Z,88.68
2022-12-11T18:36:48.266Z,88.80
2022-12-11T18:39:51.203Z,89.17
2022-12-11T18:42:53.972Z,89.03
2022-12-11T18:45:56.820Z,89.01
2022-12-11T18:48:59.681Z,89.28
2022-12-11T18:52:02.558Z,89.27
2022-12-11T18:55:05.907Z,89.07
2022-12-11T18:58:08.865Z,89.13
2022-12-11T19:01:16.263Z,89.07
2022-12-11T19:04:19.123Z,88.89
2022-12-11T19:07:22.147Z,88.89
2022-12-11T19:10:25.138Z,89.05
2022-12-11T19:13:27.972Z,89.26
2022-12-11T19:16:37.179Z,89.10
2022-12-11T19:19:40.792Z,89.15
2022-12-11T19:22:43.780Z,88.93
2022-12-11T19:25:48.013Z,88.78
2022-12-11T19:28:52.785Z,88.64
2022-12-11T19:31:56.018Z,88.77
2022-12-11T19:34:58.843Z,88.66
2022-12-11T19:38:01.685Z,88.85
2022-12-11T19:41:35.037Z,88.72
2022-12-11T19:44:37.862Z,88.86
2022-12-11T19:47:40.748Z,88.97
2022-12-11T19:50:43.610Z,89.00
2022-12-11T19:53:49.390Z,88.94
2022-12-11T19:56:52.389Z,88.83
2022-12-11T19:59:57.420Z,88.78
2022-12-11T20:03:00.453Z,88.21
2022-12-11T20:06:07.205Z,88.32
2022-12-11T20:09:12.181Z,88.08
2022-12-11T20:12:15.131Z,87.75
2022-12-11T20:15:19.897Z,87.61
2022-12-11T20:18:22.746Z,87.89
2022-12-11T20:21:27.333Z,87.89
2022-12-11T20:24:30.469Z,87.41
2022-12-11T20:27:33.395Z,87.35
2022-12-11T20:30:36.240Z,87.31
2022-12-11T20:33:39.438Z,87.50
2022-12-11T20:36:42.599Z,87.64
2022-12-11T20:39:45.476Z,87.66
2022-12-11T20:42:48.350Z,87.88
2022-12-11T20:45:51.683Z,88.11
2022-12-11T20:48:59.331Z,87.83
2022-12-11T20:52:02.516Z,87.43
2022-12-11T20:55:06.409Z,87.65
2022-12-11T20:58:09.634Z,87.66
2022-12-11T21:01:27.307Z,87.69
2022-12-11T21:04:30.163Z,87.83
2022-12-11T21:07:33.019Z,88.00
2022-12-11T21:10:36.365Z,88.23
2022-12-11T21:13:39.256Z,88.30
2022-12-11T21:16:48.834Z,88.10
2022-12-11T21:19:58.026Z,87.81
2022-12-11T21:23:01.902Z,87.64
2022-12-11T21:26:05.269Z,87.59
2022-12-11T21:29:08.112Z,87.75
2022-12-11T21:32:10.969Z,87.76
2022-12-11T21:35:14.361Z,88.01
2022-12-11T21:38:17.596Z,87.85
2022-12-11T21:41:23.478Z,87.57
2022-12-11T21:47:49.207Z,87.93
2022-12-11T21:50:52.108Z,88.05
2022-12-11T21:53:55.548Z,88.19
2022-12-11T21:56:58.496Z,88.07
2022-12-11T22:00:01.400Z,88.09
2022-12-11T22:03:06.666Z,88.10
2022-12-11T22:06:09.576Z,87.96
2022-12-11T22:09:14.061Z,87.95
2022-12-11T22:12:26.044Z,87.56
2022-12-11T22:15:28.833Z,87.57
2022-12-11T22:18:31.611Z,87.73
2022-12-11T22:21:34.966Z,87.99
2022-12-11T22:24:38.794Z,88.20
2022-12-11T22:27:41.543Z,88.08
2022-12-11T22:30:44.874Z,87.83
2022-12-11T22:33:50.174Z,87.89
2022-12-11T22:36:53.134Z,87.95
2022-12-11T22:39:56.168Z,87.92
2022-12-11T22:42:59.014Z,87.91
2022-12-11T22:46:04.877Z,87.98
2022-12-11T22:49:10.187Z,88.63
2022-12-11T22:52:13.102Z,88.25
2022-12-11T22:55:15.964Z,88.35
2022-12-11T22:58:21.881Z,88.27
2022-12-11T23:01:27.166Z,88.16
2022-12-11T23:04:30.785Z,88.31
2022-12-11T23:07:34.179Z,88.34
2022-12-11T23:10:40.525Z,88.25
2022-12-11T23:13:43.503Z,88.35
2022-12-11T23:16:46.544Z,88.54
2022-12-11T23:19:49.533Z,88.77
2022-12-11T23:22:52.561Z,88.79
2022-12-11T23:25:56.774Z,89.07
2022-12-11T23:29:00.414Z,88.92
2022-12-11T23:32:03.516Z,88.73
2022-12-11T23:35:06.612Z,88.78
2022-12-11T23:38:09.424Z,88.58
2022-12-11T23:41:14.265Z,88.54
2022-12-11T23:44:17.271Z,88.61
2022-12-11T23:47:20.099Z,88.54
2022-12-11T23:50:23.059Z,88.61
2022-12-11T23:53:26.068Z,89.05
2022-12-11T23:56:30.178Z,89.15
2022-12-11T23:59:33.006Z,89.11
